sensor_id;sensor_type;location;lat;lon;timestamp;pressure;altitude;pressure_sealevel;temperature
20736;BMP180;10528;52.124;5.196;2023-03-03T00:01:52;102413.00;;;8.70
20736;BMP180;10528;52.124;5.196;2023-03-03T00:04:19;102412.00;;;8.70
20736;BMP180;10528;52.124;5.196;2023-03-03T00:06:46;102417.00;;;8.70
20736;BMP180;10528;52.124;5.196;2023-03-03T00:09:12;102406.00;;;8.70
20736;BMP180;10528;52.124;5.196;2023-03-03T00:11:39;102420.00;;;8.60
20736;BMP180;10528;52.124;5.196;2023-03-03T00:14:21;102419.00;;;8.60
20736;BMP180;10528;52.124;5.196;2023-03-03T00:16:49;102409.00;;;8.60
20736;BMP180;10528;52.124;5.196;2023-03-03T00:19:19;102417.00;;;8.60
20736;BMP180;10528;52.124;5.196;2023-03-03T00:21:51;102413.00;;;8.60
20736;BMP180;10528;52.124;5.196;2023-03-03T00:24:24;102419.00;;;8.60
20736;BMP180;10528;52.124;5.196;2023-03-03T00:26:54;102410.00;;;8.60
20736;BMP180;10528;52.124;5.196;2023-03-03T00:29:34;102416.00;;;8.60
20736;BMP180;10528;52.124;5.196;2023-03-03T00:34:42;102412.00;;;8.50
20736;BMP180;10528;52.124;5.196;2023-03-03T00:37:31;102420.00;;;8.50
20736;BMP180;10528;52.124;5.196;2023-03-03T00:40:22;102426.00;;;8.50
20736;BMP180;10528;52.124;5.196;2023-03-03T00:42:55;102428.00;;;8.40
20736;BMP180;10528;52.124;5.196;2023-03-03T00:45:32;102419.00;;;8.40
20736;BMP180;10528;52.124;5.196;2023-03-03T00:50:45;102412.00;;;8.30
20736;BMP180;10528;52.124;5.196;2023-03-03T00:53:15;102423.00;;;8.30
20736;BMP180;10528;52.124;5.196;2023-03-03T00:55:43;102417.00;;;8.30
20736;BMP180;10528;52.124;5.196;2023-03-03T00:58:11;102441.00;;;8.30
20736;BMP180;10528;52.124;5.196;2023-03-03T01:00:42;102437.00;;;8.30
20736;BMP180;10528;52.124;5.196;2023-03-03T01:03:31;102447.00;;;8.20
20736;BMP180;10528;52.124;5.196;2023-03-03T01:05:58;102437.00;;;8.30
20736;BMP180;10528;52.124;5.196;2023-03-03T01:08:25;102439.00;;;8.20
20736;BMP180;10528;52.124;5.196;2023-03-03T01:10:56;102439.00;;;8.20
20736;BMP180;10528;52.124;5.196;2023-03-03T01:13:31;102445.00;;;8.20
20736;BMP180;10528;52.124;5.196;2023-03-03T01:16:00;102444.00;;;8.20
20736;BMP180;10528;52.124;5.196;2023-03-03T01:18:28;102440.00;;;8.20
20736;BMP180;10528;52.124;5.196;2023-03-03T01:20:55;102428.00;;;8.20
20736;BMP180;10528;52.124;5.196;2023-03-03T01:23:22;102439.00;;;8.10
20736;BMP180;10528;52.124;5.196;2023-03-03T01:25:49;102432.00;;;8.10
20736;BMP180;10528;52.124;5.196;2023-03-03T01:28:16;102430.00;;;8.10
20736;BMP180;10528;52.124;5.196;2023-03-03T01:30:43;102434.00;;;8.10
20736;BMP180;10528;52.124;5.196;2023-03-03T01:33:10;102436.00;;;8.00
20736;BMP180;10528;52.124;5.196;2023-03-03T01:35:37;102444.00;;;8.10
20736;BMP180;10528;52.124;5.196;2023-03-03T01:38:06;102440.00;;;8.10
20736;BMP180;10528;52.124;5.196;2023-03-03T01:40:33;102446.00;;;8.10
20736;BMP180;10528;52.124;5.196;2023-03-03T01:43:02;102439.00;;;8.00
20736;BMP180;10528;52.124;5.196;2023-03-03T01:48:30;102454.00;;;8.00
20736;BMP180;10528;52.124;5.196;2023-03-03T01:51:22;102446.00;;;8.00
20736;BMP180;10528;52.124;5.196;2023-03-03T01:53:57;102438.00;;;8.00
20736;BMP180;10528;52.124;5.196;2023-03-03T01:56:25;102452.00;;;8.00
20736;BMP180;10528;52.124;5.196;2023-03-03T01:58:58;102451.00;;;8.00
20736;BMP180;10528;52.124;5.196;2023-03-03T02:01:28;102457.00;;;8.00
20736;BMP180;10528;52.124;5.196;2023-03-03T02:03:58;102448.00;;;8.00
20736;BMP180;10528;52.124;5.196;2023-03-03T02:06:34;102457.00;;;8.00
20736;BMP180;10528;52.124;5.196;2023-03-03T02:09:23;102451.00;;;8.00
20736;BMP180;10528;52.124;5.196;2023-03-03T02:12:00;102443.00;;;8.00
20736;BMP180;10528;52.124;5.196;2023-03-03T02:14:29;102448.00;;;8.00
20736;BMP180;10528;52.124;5.196;2023-03-03T02:16:56;102443.00;;;7.90
20736;BMP180;10528;52.124;5.196;2023-03-03T02:22:10;102456.00;;;7.80
20736;BMP180;10528;52.124;5.196;2023-03-03T02:25:01;102452.00;;;7.80
20736;BMP180;10528;52.124;5.196;2023-03-03T02:27:31;102452.00;;;7.70
20736;BMP180;10528;52.124;5.196;2023-03-03T02:30:11;102442.00;;;7.70
20736;BMP180;10528;52.124;5.196;2023-03-03T02:32:39;102447.00;;;7.70
20736;BMP180;10528;52.124;5.196;2023-03-03T02:35:31;102435.00;;;7.60
20736;BMP180;10528;52.124;5.196;2023-03-03T02:40:44;102441.00;;;7.70
20736;BMP180;10528;52.124;5.196;2023-03-03T02:43:18;102437.00;;;7.70
20736;BMP180;10528;52.124;5.196;2023-03-03T02:45:46;102442.00;;;7.70
20736;BMP180;10528;52.124;5.196;2023-03-03T02:48:13;102448.00;;;7.70
20736;BMP180;10528;52.124;5.196;2023-03-03T02:50:40;102448.00;;;7.70
20736;BMP180;10528;52.124;5.196;2023-03-03T02:53:06;102439.00;;;7.80
20736;BMP180;10528;52.124;5.196;2023-03-03T02:55:33;102442.00;;;7.80
20736;BMP180;10528;52.124;5.196;2023-03-03T02:58:00;102440.00;;;7.80
20736;BMP180;10528;52.124;5.196;2023-03-03T03:00:30;102448.00;;;7.80
20736;BMP180;10528;52.124;5.196;2023-03-03T03:02:58;102440.00;;;7.80
20736;BMP180;10528;52.124;5.196;2023-03-03T03:05:25;102446.00;;;7.80
20736;BMP180;10528;52.124;5.196;2023-03-03T03:07:51;102442.00;;;7.80
20736;BMP180;10528;52.124;5.196;2023-03-03T03:10:19;102448.00;;;7.80
20736;BMP180;10528;52.124;5.196;2023-03-03T03:12:46;102447.00;;;7.80
20736;BMP180;10528;52.124;5.196;2023-03-03T03:15:13;102450.00;;;7.80
20736;BMP180;10528;52.124;5.196;2023-03-03T03:17:41;102440.00;;;7.70
20736;BMP180;10528;52.124;5.196;2023-03-03T03:20:10;102441.00;;;7.80
20736;BMP180;10528;52.124;5.196;2023-03-03T03:22:37;102443.00;;;7.80
20736;BMP180;10528;52.124;5.196;2023-03-03T03:25:05;102443.00;;;7.80
20736;BMP180;10528;52.124;5.196;2023-03-03T03:27:33;102435.00;;;7.80
20736;BMP180;10528;52.124;5.196;2023-03-03T03:30:00;102442.00;;;7.80
20736;BMP180;10528;52.124;5.196;2023-03-03T03:32:28;102439.00;;;7.80
20736;BMP180;10528;52.124;5.196;2023-03-03T03:34:55;102434.00;;;7.80
20736;BMP180;10528;52.124;5.196;2023-03-03T03:37:22;102438.00;;;7.80
20736;BMP180;10528;52.124;5.196;2023-03-03T03:39:49;102446.00;;;7.80
20736;BMP180;10528;52.124;5.196;2023-03-03T03:42:17;102433.00;;;7.80
20736;BMP180;10528;52.124;5.196;2023-03-03T03:44:44;102444.00;;;7.80
20736;BMP180;10528;52.124;5.196;2023-03-03T03:47:13;102447.00;;;7.90
20736;BMP180;10528;52.124;5.196;2023-03-03T03:49:40;102454.00;;;7.90
20736;BMP180;10528;52.124;5.196;2023-03-03T03:52:07;102459.00;;;7.80
20736;BMP180;10528;52.124;5.196;2023-03-03T03:54:34;102443.00;;;7.80
20736;BMP180;10528;52.124;5.196;2023-03-03T03:57:01;102450.00;;;7.80
20736;BMP180;10528;52.124;5.196;2023-03-03T03:59:29;102447.00;;;7.80
20736;BMP180;10528;52.124;5.196;2023-03-03T04:01:56;102462.00;;;7.70
20736;BMP180;10528;52.124;5.196;2023-03-03T04:04:24;102463.00;;;7.70
20736;BMP180;10528;52.124;5.196;2023-03-03T04:06:52;102460.00;;;7.70
20736;BMP180;10528;52.124;5.196;2023-03-03T04:09:19;102456.00;;;7.70
20736;BMP180;10528;52.124;5.196;2023-03-03T04:11:46;102470.00;;;7.60
20736;BMP180;10528;52.124;5.196;2023-03-03T04:14:14;102463.00;;;7.60
20736;BMP180;10528;52.124;5.196;2023-03-03T04:16:41;102460.00;;;7.60
20736;BMP180;10528;52.124;5.196;2023-03-03T04:19:08;102459.00;;;7.60
20736;BMP180;10528;52.124;5.196;2023-03-03T04:21:37;102452.00;;;7.60
20736;BMP180;10528;52.124;5.196;2023-03-03T04:24:04;102459.00;;;7.60
20736;BMP180;10528;52.124;5.196;2023-03-03T04:26:32;102457.00;;;7.60
20736;BMP180;10528;52.124;5.196;2023-03-03T04:29:01;102450.00;;;7.70
20736;BMP180;10528;52.124;5.196;2023-03-03T04:31:29;102457.00;;;7.70
20736;BMP180;10528;52.124;5.196;2023-03-03T04:33:56;102463.00;;;7.70
20736;BMP180;10528;52.124;5.196;2023-03-03T04:36:24;102455.00;;;7.70
20736;BMP180;10528;52.124;5.196;2023-03-03T04:38:51;102463.00;;;7.70
20736;BMP180;10528;52.124;5.196;2023-03-03T04:41:19;102462.00;;;7.70
20736;BMP180;10528;52.124;5.196;2023-03-03T04:43:46;102458.00;;;7.70
20736;BMP180;10528;52.124;5.196;2023-03-03T04:46:13;102464.00;;;7.70
20736;BMP180;10528;52.124;5.196;2023-03-03T04:48:40;102467.00;;;7.70
20736;BMP180;10528;52.124;5.196;2023-03-03T04:51:08;102461.00;;;7.80
20736;BMP180;10528;52.124;5.196;2023-03-03T04:53:36;102467.00;;;7.70
20736;BMP180;10528;52.124;5.196;2023-03-03T04:56:05;102468.00;;;7.80
20736;BMP180;10528;52.124;5.196;2023-03-03T04:58:32;102458.00;;;7.80
20736;BMP180;10528;52.124;5.196;2023-03-03T05:01:00;102463.00;;;7.80
20736;BMP180;10528;52.124;5.196;2023-03-03T05:03:29;102470.00;;;7.80
20736;BMP180;10528;52.124;5.196;2023-03-03T05:05:55;102471.00;;;7.80
20736;BMP180;10528;52.124;5.196;2023-03-03T05:08:22;102464.00;;;7.80
20736;BMP180;10528;52.124;5.196;2023-03-03T05:10:54;102461.00;;;7.80
20736;BMP180;10528;52.124;5.196;2023-03-03T05:13:21;102463.00;;;7.80
20736;BMP180;10528;52.124;5.196;2023-03-03T05:15:50;102459.00;;;7.90
20736;BMP180;10528;52.124;5.196;2023-03-03T05:18:19;102447.00;;;7.80
20736;BMP180;10528;52.124;5.196;2023-03-03T05:20:46;102459.00;;;7.90
20736;BMP180;10528;52.124;5.196;2023-03-03T05:23:13;102464.00;;;7.90
20736;BMP180;10528;52.124;5.196;2023-03-03T05:25:41;102458.00;;;7.90
20736;BMP180;10528;52.124;5.196;2023-03-03T05:28:09;102473.00;;;8.00
20736;BMP180;10528;52.124;5.196;2023-03-03T05:30:36;102464.00;;;8.00
20736;BMP180;10528;52.124;5.196;2023-03-03T05:33:05;102455.00;;;8.00
20736;BMP180;10528;52.124;5.196;2023-03-03T05:35:33;102455.00;;;8.00
20736;BMP180;10528;52.124;5.196;2023-03-03T05:38:00;102460.00;;;8.00
20736;BMP180;10528;52.124;5.196;2023-03-03T05:40:30;102462.00;;;8.10
20736;BMP180;10528;52.124;5.196;2023-03-03T05:42:57;102462.00;;;8.10
20736;BMP180;10528;52.124;5.196;2023-03-03T05:45:24;102456.00;;;8.10
20736;BMP180;10528;52.124;5.196;2023-03-03T05:47:52;102466.00;;;8.10
20736;BMP180;10528;52.124;5.196;2023-03-03T05:50:21;102463.00;;;8.10
20736;BMP180;10528;52.124;5.196;2023-03-03T05:52:50;102456.00;;;8.10
20736;BMP180;10528;52.124;5.196;2023-03-03T05:55:18;102466.00;;;8.20
20736;BMP180;10528;52.124;5.196;2023-03-03T05:57:45;102463.00;;;8.10
20736;BMP180;10528;52.124;5.196;2023-03-03T06:00:13;102471.00;;;8.10
20736;BMP180;10528;52.124;5.196;2023-03-03T06:02:41;102457.00;;;8.10
20736;BMP180;10528;52.124;5.196;2023-03-03T06:05:10;102464.00;;;8.10
20736;BMP180;10528;52.124;5.196;2023-03-03T06:07:37;102478.00;;;8.20
20736;BMP180;10528;52.124;5.196;2023-03-03T06:10:05;102471.00;;;8.20
20736;BMP180;10528;52.124;5.196;2023-03-03T06:12:35;102476.00;;;8.20
20736;BMP180;10528;52.124;5.196;2023-03-03T06:15:02;102481.00;;;8.20
20736;BMP180;10528;52.124;5.196;2023-03-03T06:17:29;102482.00;;;8.20
20736;BMP180;10528;52.124;5.196;2023-03-03T06:19:56;102487.00;;;8.20
20736;BMP180;10528;52.124;5.196;2023-03-03T06:22:23;102489.00;;;8.20
20736;BMP180;10528;52.124;5.196;2023-03-03T06:24:50;102488.00;;;8.20
20736;BMP180;10528;52.124;5.196;2023-03-03T06:27:18;102473.00;;;8.20
20736;BMP180;10528;52.124;5.196;2023-03-03T06:29:45;102484.00;;;8.20
20736;BMP180;10528;52.124;5.196;2023-03-03T06:32:12;102496.00;;;8.20
20736;BMP180;10528;52.124;5.196;2023-03-03T06:34:39;102491.00;;;8.20
20736;BMP180;10528;52.124;5.196;2023-03-03T06:37:06;102498.00;;;8.20
20736;BMP180;10528;52.124;5.196;2023-03-03T06:39:33;102499.00;;;8.20
20736;BMP180;10528;52.124;5.196;2023-03-03T06:42:00;102488.00;;;8.30
20736;BMP180;10528;52.124;5.196;2023-03-03T06:44:26;102488.00;;;8.30
20736;BMP180;10528;52.124;5.196;2023-03-03T06:46:54;102495.00;;;8.30
20736;BMP180;10528;52.124;5.196;2023-03-03T06:49:23;102502.00;;;8.30
20736;BMP180;10528;52.124;5.196;2023-03-03T06:51:50;102512.00;;;8.40
20736;BMP180;10528;52.124;5.196;2023-03-03T06:54:20;102512.00;;;8.40
20736;BMP180;10528;52.124;5.196;2023-03-03T06:57:13;102513.00;;;8.40
20736;BMP180;10528;52.124;5.196;2023-03-03T06:59:41;102520.00;;;8.40
20736;BMP180;10528;52.124;5.196;2023-03-03T07:02:16;102519.00;;;8.40
20736;BMP180;10528;52.124;5.196;2023-03-03T07:04:44;102523.00;;;8.50
20736;BMP180;10528;52.124;5.196;2023-03-03T07:07:23;102526.00;;;8.50
20736;BMP180;10528;52.124;5.196;2023-03-03T07:09:54;102524.00;;;8.50
20736;BMP180;10528;52.124;5.196;2023-03-03T07:12:28;102528.00;;;8.50
20736;BMP180;10528;52.124;5.196;2023-03-03T07:17:45;102532.00;;;8.50
20736;BMP180;10528;52.124;5.196;2023-03-03T07:20:23;102535.00;;;8.50
20736;BMP180;10528;52.124;5.196;2023-03-03T07:22:51;102536.00;;;8.50
20736;BMP180;10528;52.124;5.196;2023-03-03T07:25:30;102541.00;;;8.60
20736;BMP180;10528;52.124;5.196;2023-03-03T07:28:21;102538.00;;;8.60
20736;BMP180;10528;52.124;5.196;2023-03-03T07:30:48;102544.00;;;8.60
20736;BMP180;10528;52.124;5.196;2023-03-03T07:33:34;102543.00;;;8.70
20736;BMP180;10528;52.124;5.196;2023-03-03T07:36:17;102546.00;;;8.70
20736;BMP180;10528;52.124;5.196;2023-03-03T07:38:53;102540.00;;;8.70
20736;BMP180;10528;52.124;5.196;2023-03-03T07:41:21;102556.00;;;8.70
20736;BMP180;10528;52.124;5.196;2023-03-03T07:46:48;102552.00;;;8.70
20736;BMP180;10528;52.124;5.196;2023-03-03T07:51:58;102562.00;;;8.80
20736;BMP180;10528;52.124;5.196;2023-03-03T07:54:38;102561.00;;;8.80
20736;BMP180;10528;52.124;5.196;2023-03-03T07:57:20;102570.00;;;8.80
20736;BMP180;10528;52.124;5.196;2023-03-03T08:03:26;102570.00;;;8.90
20736;BMP180;10528;52.124;5.196;2023-03-03T08:05:42;102578.00;;;8.90
20736;BMP180;10528;52.124;5.196;2023-03-03T08:08:28;102578.00;;;8.90
20736;BMP180;10528;52.124;5.196;2023-03-03T08:10:59;102585.00;;;9.00
20736;BMP180;10528;52.124;5.196;2023-03-03T08:18:45;102593.00;;;9.10
20736;BMP180;10528;52.124;5.196;2023-03-03T08:21:25;102587.00;;;9.10
20736;BMP180;10528;52.124;5.196;2023-03-03T08:23:52;102597.00;;;9.10
20736;BMP180;10528;52.124;5.196;2023-03-03T08:26:22;102603.00;;;9.10
20736;BMP180;10528;52.124;5.196;2023-03-03T08:28:51;102600.00;;;9.10
20736;BMP180;10528;52.124;5.196;2023-03-03T08:31:19;102607.00;;;9.20
20736;BMP180;10528;52.124;5.196;2023-03-03T08:34:06;102605.00;;;9.20
20736;BMP180;10528;52.124;5.196;2023-03-03T08:36:33;102608.00;;;9.20
20736;BMP180;10528;52.124;5.196;2023-03-03T08:39:02;102601.00;;;9.30
20736;BMP180;10528;52.124;5.196;2023-03-03T08:41:29;102603.00;;;9.30
20736;BMP180;10528;52.124;5.196;2023-03-03T08:43:56;102602.00;;;9.40
20736;BMP180;10528;52.124;5.196;2023-03-03T08:46:23;102603.00;;;9.40
20736;BMP180;10528;52.124;5.196;2023-03-03T08:48:50;102600.00;;;9.50
20736;BMP180;10528;52.124;5.196;2023-03-03T08:51:17;102601.00;;;9.50
20736;BMP180;10528;52.124;5.196;2023-03-03T08:53:43;102608.00;;;9.50
20736;BMP180;10528;52.124;5.196;2023-03-03T08:56:10;102608.00;;;9.50
20736;BMP180;10528;52.124;5.196;2023-03-03T08:58:37;102607.00;;;9.60
20736;BMP180;10528;52.124;5.196;2023-03-03T09:01:16;102613.00;;;9.70
20736;BMP180;10528;52.124;5.196;2023-03-03T09:03:44;102610.00;;;9.70
20736;BMP180;10528;52.124;5.196;2023-03-03T09:06:11;102615.00;;;9.80
20736;BMP180;10528;52.124;5.196;2023-03-03T09:08:38;102609.00;;;9.80
20736;BMP180;10528;52.124;5.196;2023-03-03T09:11:23;102608.00;;;9.90
20736;BMP180;10528;52.124;5.196;2023-03-03T09:13:52;102611.00;;;9.90
20736;BMP180;10528;52.124;5.196;2023-03-03T09:16:20;102611.00;;;10.00
20736;BMP180;10528;52.124;5.196;2023-03-03T09:18:48;102601.00;;;10.00
20736;BMP180;10528;52.124;5.196;2023-03-03T09:21:30;102599.00;;;10.10
20736;BMP180;10528;52.124;5.196;2023-03-03T09:24:00;102613.00;;;10.20
20736;BMP180;10528;52.124;5.196;2023-03-03T09:26:45;102601.00;;;10.30
20736;BMP180;10528;52.124;5.196;2023-03-03T09:29:35;102612.00;;;10.30
20736;BMP180;10528;52.124;5.196;2023-03-03T09:32:36;102603.00;;;10.40
20736;BMP180;10528;52.124;5.196;2023-03-03T09:37:53;102607.00;;;10.50
20736;BMP180;10528;52.124;5.196;2023-03-03T09:41:27;102601.00;;;10.50
20736;BMP180;10528;52.124;5.196;2023-03-03T09:44:25;102606.00;;;10.50
20736;BMP180;10528;52.124;5.196;2023-03-03T09:47:34;102616.00;;;10.60
20736;BMP180;10528;52.124;5.196;2023-03-03T09:50:59;102614.00;;;10.80
20736;BMP180;10528;52.124;5.196;2023-03-03T09:56:40;102625.00;;;10.90
20736;BMP180;10528;52.124;5.196;2023-03-03T09:59:32;102619.00;;;10.90
20736;BMP180;10528;52.124;5.196;2023-03-03T10:05:50;102607.00;;;11.00
20736;BMP180;10528;52.124;5.196;2023-03-03T10:11:34;102615.00;;;11.20
20736;BMP180;10528;52.124;5.196;2023-03-03T10:14:48;102612.00;;;11.30
20736;BMP180;10528;52.124;5.196;2023-03-03T10:18:04;102622.00;;;11.30
20736;BMP180;10528;52.124;5.196;2023-03-03T10:24:38;102627.00;;;11.30
20736;BMP180;10528;52.124;5.196;2023-03-03T10:27:37;102618.00;;;11.30
20736;BMP180;10528;52.124;5.196;2023-03-03T10:30:37;102616.00;;;11.40
20736;BMP180;10528;52.124;5.196;2023-03-03T10:39:56;102615.00;;;11.60
20736;BMP180;10528;52.124;5.196;2023-03-03T10:43:23;102628.00;;;11.70
20736;BMP180;10528;52.124;5.196;2023-03-03T10:49:53;102627.00;;;11.90
20736;BMP180;10528;52.124;5.196;2023-03-03T10:52:59;102627.00;;;12.00
20736;BMP180;10528;52.124;5.196;2023-03-03T10:55:35;102635.00;;;12.10
20736;BMP180;10528;52.124;5.196;2023-03-03T11:10:41;102625.00;;;12.40
20736;BMP180;10528;52.124;5.196;2023-03-03T11:13:34;102611.00;;;12.50
20736;BMP180;10528;52.124;5.196;2023-03-03T11:16:25;102618.00;;;12.60
20736;BMP180;10528;52.124;5.196;2023-03-03T11:19:11;102611.00;;;12.70
20736;BMP180;10528;52.124;5.196;2023-03-03T11:25:15;102616.00;;;12.80
20736;BMP180;10528;52.124;5.196;2023-03-03T11:28:21;102609.00;;;12.80
20736;BMP180;10528;52.124;5.196;2023-03-03T11:31:18;102611.00;;;12.80
20736;BMP180;10528;52.124;5.196;2023-03-03T11:37:19;102601.00;;;12.90
20736;BMP180;10528;52.124;5.196;2023-03-03T11:39:51;102602.00;;;13.00
20736;BMP180;10528;52.124;5.196;2023-03-03T11:45:22;102603.00;;;13.10
20736;BMP180;10528;52.124;5.196;2023-03-03T11:48:05;102603.00;;;13.20
20736;BMP180;10528;52.124;5.196;2023-03-03T11:56:44;102605.00;;;13.50
20736;BMP180;10528;52.124;5.196;2023-03-03T12:04:58;102593.00;;;13.60
20736;BMP180;10528;52.124;5.196;2023-03-03T12:10:41;102593.00;;;13.70
20736;BMP180;10528;52.124;5.196;2023-03-03T12:13:56;102595.00;;;13.80
20736;BMP180;10528;52.124;5.196;2023-03-03T12:16:56;102586.00;;;13.80
20736;BMP180;10528;52.124;5.196;2023-03-03T12:22:34;102586.00;;;14.00
20736;BMP180;10528;52.124;5.196;2023-03-03T12:25:19;102583.00;;;14.10
20736;BMP180;10528;52.124;5.196;2023-03-03T12:28:10;102575.00;;;14.20
20736;BMP180;10528;52.124;5.196;2023-03-03T12:43:02;102566.00;;;14.30
20736;BMP180;10528;52.124;5.196;2023-03-03T12:48:16;102564.00;;;14.30
20736;BMP180;10528;52.124;5.196;2023-03-03T12:51:30;102564.00;;;14.20
20736;BMP180;10528;52.124;5.196;2023-03-03T12:55:13;102555.00;;;14.30
20736;BMP180;10528;52.124;5.196;2023-03-03T12:57:40;102566.00;;;14.30
20736;BMP180;10528;52.124;5.196;2023-03-03T13:03:15;102561.00;;;14.40
20736;BMP180;10528;52.124;5.196;2023-03-03T13:06:06;102556.00;;;14.40
20736;BMP180;10528;52.124;5.196;2023-03-03T13:09:06;102557.00;;;14.40
20736;BMP180;10528;52.124;5.196;2023-03-03T13:17:26;102558.00;;;14.50
20736;BMP180;10528;52.124;5.196;2023-03-03T13:20:02;102565.00;;;14.50
20736;BMP180;10528;52.124;5.196;2023-03-03T13:23:07;102558.00;;;14.50
20736;BMP180;10528;52.124;5.196;2023-03-03T13:25:59;102560.00;;;14.50
20736;BMP180;10528;52.124;5.196;2023-03-03T13:29:17;102556.00;;;14.40
20736;BMP180;10528;52.124;5.196;2023-03-03T13:31:48;102553.00;;;14.40
20736;BMP180;10528;52.124;5.196;2023-03-03T13:34:50;102560.00;;;14.40
20736;BMP180;10528;52.124;5.196;2023-03-03T13:40:44;102556.00;;;14.40
20736;BMP180;10528;52.124;5.196;2023-03-03T13:43:24;102557.00;;;14.40
20736;BMP180;10528;52.124;5.196;2023-03-03T13:46:07;102555.00;;;14.50
20736;BMP180;10528;52.124;5.196;2023-03-03T13:48:59;102551.00;;;14.40
20736;BMP180;10528;52.124;5.196;2023-03-03T13:51:59;102560.00;;;14.40
20736;BMP180;10528;52.124;5.196;2023-03-03T13:55:04;102555.00;;;14.40
20736;BMP180;10528;52.124;5.196;2023-03-03T14:00:56;102549.00;;;14.50
20736;BMP180;10528;52.124;5.196;2023-03-03T14:06:26;102538.00;;;14.60
20736;BMP180;10528;52.124;5.196;2023-03-03T14:11:52;102551.00;;;14.60
20736;BMP180;10528;52.124;5.196;2023-03-03T14:17:52;102552.00;;;14.60
20736;BMP180;10528;52.124;5.196;2023-03-03T14:20:32;102549.00;;;14.60
20736;BMP180;10528;52.124;5.196;2023-03-03T14:28:41;102546.00;;;14.50
20736;BMP180;10528;52.124;5.196;2023-03-03T14:31:22;102536.00;;;14.50
20736;BMP180;10528;52.124;5.196;2023-03-03T14:37:09;102540.00;;;14.50
20736;BMP180;10528;52.124;5.196;2023-03-03T14:40:00;102531.00;;;14.50
20736;BMP180;10528;52.124;5.196;2023-03-03T14:42:42;102538.00;;;14.40
20736;BMP180;10528;52.124;5.196;2023-03-03T14:45:40;102540.00;;;14.40
20736;BMP180;10528;52.124;5.196;2023-03-03T14:48:24;102536.00;;;14.40
20736;BMP180;10528;52.124;5.196;2023-03-03T14:51:37;102525.00;;;14.50
20736;BMP180;10528;52.124;5.196;2023-03-03T14:53:46;102531.00;;;14.50
20736;BMP180;10528;52.124;5.196;2023-03-03T14:59:19;102542.00;;;14.50
20736;BMP180;10528;52.124;5.196;2023-03-03T15:02:41;102532.00;;;14.40
20736;BMP180;10528;52.124;5.196;2023-03-03T15:04:47;102530.00;;;14.40
20736;BMP180;10528;52.124;5.196;2023-03-03T15:07:31;102537.00;;;14.40
20736;BMP180;10528;52.124;5.196;2023-03-03T15:09:59;102531.00;;;14.50
20736;BMP180;10528;52.124;5.196;2023-03-03T15:12:37;102529.00;;;14.50
20736;BMP180;10528;52.124;5.196;2023-03-03T15:15:16;102521.00;;;14.40
20736;BMP180;10528;52.124;5.196;2023-03-03T15:17:54;102529.00;;;14.40
20736;BMP180;10528;52.124;5.196;2023-03-03T15:29:58;102516.00;;;14.20
20736;BMP180;10528;52.124;5.196;2023-03-03T15:32:48;102511.00;;;14.10
20736;BMP180;10528;52.124;5.196;2023-03-03T15:35:40;102511.00;;;14.10
20736;BMP180;10528;52.124;5.196;2023-03-03T15:41:15;102510.00;;;14.00
20736;BMP180;10528;52.124;5.196;2023-03-03T15:43:57;102502.00;;;14.00
20736;BMP180;10528;52.124;5.196;2023-03-03T15:52:46;102505.00;;;13.90
20736;BMP180;10528;52.124;5.196;2023-03-03T16:01:33;102496.00;;;13.90
20736;BMP180;10528;52.124;5.196;2023-03-03T16:04:14;102495.00;;;13.90
20736;BMP180;10528;52.124;5.196;2023-03-03T16:07:10;102495.00;;;13.90
20736;BMP180;10528;52.124;5.196;2023-03-03T16:10:21;102496.00;;;13.80
20736;BMP180;10528;52.124;5.196;2023-03-03T16:16:23;102512.00;;;13.70
20736;BMP180;10528;52.124;5.196;2023-03-03T16:19:12;102508.00;;;13.70
20736;BMP180;10528;52.124;5.196;2023-03-03T16:22:03;102509.00;;;13.70
20736;BMP180;10528;52.124;5.196;2023-03-03T16:25:06;102501.00;;;13.60
20736;BMP180;10528;52.124;5.196;2023-03-03T16:31:20;102497.00;;;13.60
20736;BMP180;10528;52.124;5.196;2023-03-03T16:34:20;102497.00;;;13.60
20736;BMP180;10528;52.124;5.196;2023-03-03T16:40:14;102496.00;;;13.60
20736;BMP180;10528;52.124;5.196;2023-03-03T16:42:46;102484.00;;;13.50
20736;BMP180;10528;52.124;5.196;2023-03-03T16:45:23;102490.00;;;13.50
20736;BMP180;10528;52.124;5.196;2023-03-03T16:51:03;102491.00;;;13.50
20736;BMP180;10528;52.124;5.196;2023-03-03T16:53:49;102489.00;;;13.50
20736;BMP180;10528;52.124;5.196;2023-03-03T16:56:45;102489.00;;;13.50
20736;BMP180;10528;52.124;5.196;2023-03-03T16:59:54;102493.00;;;13.50
20736;BMP180;10528;52.124;5.196;2023-03-03T17:09:06;102497.00;;;13.50
20736;BMP180;10528;52.124;5.196;2023-03-03T17:26:41;102505.00;;;13.60
20736;BMP180;10528;52.124;5.196;2023-03-03T17:29:19;102519.00;;;13.60
20736;BMP180;10528;52.124;5.196;2023-03-03T17:38:05;102507.00;;;13.50
20736;BMP180;10528;52.124;5.196;2023-03-03T17:43:33;102514.00;;;13.50
20736;BMP180;10528;52.124;5.196;2023-03-03T17:46:18;102516.00;;;13.50
20736;BMP180;10528;52.124;5.196;2023-03-03T17:49:07;102519.00;;;13.50
20736;BMP180;10528;52.124;5.196;2023-03-03T18:07:19;102530.00;;;13.30
20736;BMP180;10528;52.124;5.196;2023-03-03T18:21:58;102548.00;;;13.30
20736;BMP180;10528;52.124;5.196;2023-03-03T18:24:53;102552.00;;;13.30
20736;BMP180;10528;52.124;5.196;2023-03-03T18:30:13;102557.00;;;13.30
20736;BMP180;10528;52.124;5.196;2023-03-03T18:33:08;102553.00;;;13.30
20736;BMP180;10528;52.124;5.196;2023-03-03T18:35:46;102564.00;;;13.20
20736;BMP180;10528;52.124;5.196;2023-03-03T18:41:03;102571.00;;;13.20
20736;BMP180;10528;52.124;5.196;2023-03-03T18:49:03;102569.00;;;13.10
20736;BMP180;10528;52.124;5.196;2023-03-03T18:57:13;102565.00;;;13.00
20736;BMP180;10528;52.124;5.196;2023-03-03T19:02:54;102570.00;;;13.00
20736;BMP180;10528;52.124;5.196;2023-03-03T19:05:22;102562.00;;;13.00
20736;BMP180;10528;52.124;5.196;2023-03-03T19:08:03;102563.00;;;13.00
20736;BMP180;10528;52.124;5.196;2023-03-03T19:10:57;102567.00;;;13.00
20736;BMP180;10528;52.124;5.196;2023-03-03T19:16:06;102581.00;;;13.00
20736;BMP180;10528;52.124;5.196;2023-03-03T19:21:30;102571.00;;;12.90
20736;BMP180;10528;52.124;5.196;2023-03-03T19:24:31;102581.00;;;12.90
20736;BMP180;10528;52.124;5.196;2023-03-03T19:27:24;102577.00;;;12.90